Time;durP1;ratioP1;P1;durP2;ratioP2;P2;SDS_P1;SDS_P2;PMS_P1;PMS_P2;Temp;Humidity;BMP_temperature;BMP_pressure;BME280_temperature;BME280_humidity;BME280_pressure;Samples;Min_cycle;Max_cycle;Signal;HPM_P1;HPM_P2
2021/11/17 02:26:13;;;;;;;;;;;6.80;99.90;;;;;;5029828;28;20012;-69
2021/11/17 02:28:54;;;;;;;;;;;6.90;99.90;;;;;;5027374;28;19920;-68
2021/11/17 02:31:20;;;;;;;;;;;6.90;99.90;;;;;;5036015;28;20358;-70
2021/11/17 02:33:52;;;;;;;;;;;6.90;99.90;;;;;;5029452;28;19940;-69
2021/11/17 02:36:37;;;;;;;;;;;7.00;99.90;;;;;;5034697;28;19914;-70
2021/11/17 02:39:09;;;;;;;;;;;7.10;99.90;;;;;;5016810;28;19909;-67
2021/11/17 02:41:53;;;;;;;;;;;7.00;99.90;;;;;;5048576;28;19917;-68
2021/11/17 02:44:25;;;;;;;;;;;7.00;99.90;;;;;;5049196;28;19932;-69
2021/11/17 02:47:07;;;;;;;;;;;7.00;99.90;;;;;;5041428;28;19920;-69
2021/11/17 02:50:02;;;;;;;;;;;7.00;99.90;;;;;;5037162;28;20033;-69
2021/11/17 02:52:27;;;;;;;;;;;6.90;99.90;;;;;;4998011;28;20342;-70
2021/11/17 02:54:59;;;;;;;;;;;6.90;99.90;;;;;;5042552;28;20578;-69
2021/11/17 02:57:30;;;;;;;;;;;7.00;99.90;;;;;;5037042;28;19916;-69
2021/11/17 03:00:15;;;;;;;;;;;7.00;99.90;;;;;;5039685;28;20007;-68
2021/11/17 03:02:49;;;;;;;;;;;7.10;99.90;;;;;;5029755;28;19917;-70
2021/11/17 03:05:14;;;;;;;;;;;7.10;99.90;;;;;;5031544;28;19920;-69
2021/11/17 03:07:53;;;;;;;;;;;7.10;99.90;;;;;;5031486;28;19940;-70
2021/11/17 03:10:24;;;;;;;;;;;7.20;99.90;;;;;;5024614;28;19914;-70
2021/11/17 03:12:59;;;;;;;;;;;7.10;99.90;;;;;;5040358;28;19979;-69
2021/11/17 03:15:31;;;;;;;;;;;7.10;99.90;;;;;;4991433;28;19920;-70
2021/11/17 03:18:26;;;;;;;;;;;7.10;99.90;;;;;;5024442;28;19929;-70
2021/11/17 03:20:52;;;;;;;;;;;7.20;99.90;;;;;;5011388;28;20011;-68
2021/11/17 03:23:23;;;;;;;;;;;7.20;99.90;;;;;;5020637;28;20075;-67
2021/11/17 03:25:49;;;;;;;;;;;7.30;99.90;;;;;;5044470;28;19912;-70
2021/11/17 03:28:15;;;;;;;;;;;7.30;99.90;;;;;;5042632;28;19987;-71
2021/11/17 03:30:47;;;;;;;;;;;7.20;99.90;;;;;;5026064;28;19915;-69
2021/11/17 03:33:15;;;;;;;;;;;7.20;99.90;;;;;;5025734;28;20008;-69
2021/11/17 03:35:47;;;;;;;;;;;7.20;99.90;;;;;;5024846;28;20259;-70
2021/11/17 03:38:12;;;;;;;;;;;7.20;99.90;;;;;;5040824;28;19939;-71
2021/11/17 03:40:54;;;;;;;;;;;7.20;99.90;;;;;;5043929;28;19920;-72
2021/11/17 03:43:26;;;;;;;;;;;7.30;99.90;;;;;;5046522;28;20002;-73
2021/11/17 03:45:57;;;;;;;;;;;7.30;99.90;;;;;;5033610;28;20004;-72
2021/11/17 03:48:23;;;;;;;;;;;7.30;99.90;;;;;;5035538;28;19914;-69
2021/11/17 03:50:52;;;;;;;;;;;7.30;99.90;;;;;;5008346;28;19909;-67
2021/11/17 03:53:30;;;;;;;;;;;7.20;99.90;;;;;;5036549;28;20015;-70
2021/11/17 03:55:56;;;;;;;;;;;7.20;99.90;;;;;;5025907;28;20421;-70
2021/11/17 03:58:40;;;;;;;;;;;7.30;99.90;;;;;;5026014;28;19975;-69
2021/11/17 04:01:06;;;;;;;;;;;7.20;99.90;;;;;;5025314;28;19949;-68
2021/11/17 04:03:31;;;;;;;;;;;7.20;99.90;;;;;;5026079;28;19913;-69
2021/11/17 04:06:03;;;;;;;;;;;7.10;99.90;;;;;;5025680;28;20402;-73
2021/11/17 04:08:29;;;;;;;;;;;7.10;99.90;;;;;;5020287;28;20298;-73
2021/11/17 04:10:57;;;;;;;;;;;7.10;99.90;;;;;;5027393;28;19909;-69
2021/11/17 04:13:28;;;;;;;;;;;7.10;99.90;;;;;;5026780;28;19909;-69
2021/11/17 04:16:12;;;;;;;;;;;7.10;99.90;;;;;;5028780;28;19936;-69
2021/11/17 04:18:46;;;;;;;;;;;7.10;99.90;;;;;;5027000;28;19920;-68
2021/11/17 04:21:15;;;;;;;;;;;7.10;99.90;;;;;;5040049;28;19913;-69
2021/11/17 04:24:06;;;;;;;;;;;7.10;99.90;;;;;;5030343;28;20236;-69
2021/11/17 04:26:44;;;;;;;;;;;7.10;99.90;;;;;;5011526;28;19924;-69
2021/11/17 04:29:15;;;;;;;;;;;7.00;99.90;;;;;;5041590;28;19928;-66
2021/11/17 04:31:54;;;;;;;;;;;7.00;99.90;;;;;;5030673;28;19920;-69
2021/11/17 04:34:29;;;;;;;;;;;7.00;99.90;;;;;;5029295;28;19916;-67
2021/11/17 04:36:54;;;;;;;;;;;6.90;99.90;;;;;;5028518;28;19999;-69
2021/11/17 04:39:20;;;;;;;;;;;6.90;99.90;;;;;;5045552;28;19996;-69
2021/11/17 04:42:01;;;;;;;;;;;6.90;99.90;;;;;;5045831;28;19917;-72
2021/11/17 04:44:32;;;;;;;;;;;6.90;99.90;;;;;;5039378;28;20048;-69
2021/11/17 04:46:57;;;;;;;;;;;6.90;99.90;;;;;;5035259;28;19928;-69
2021/11/17 04:49:35;;;;;;;;;;;6.90;99.90;;;;;;5008347;28;19932;-72
2021/11/17 04:52:16;;;;;;;;;;;6.90;99.90;;;;;;5007413;28;19948;-69
2021/11/17 04:54:48;;;;;;;;;;;6.80;99.90;;;;;;5024718;28;20287;-68
2021/11/17 04:57:14;;;;;;;;;;;6.90;99.90;;;;;;5026615;28;19917;-69
2021/11/17 04:59:58;;;;;;;;;;;6.90;99.90;;;;;;5026280;28;20349;-68
2021/11/17 05:02:32;;;;;;;;;;;6.90;99.90;;;;;;5035177;28;20376;-74
2021/11/17 05:05:13;;;;;;;;;;;6.90;99.90;;;;;;5011810;28;20012;-69
2021/11/17 05:07:42;;;;;;;;;;;6.90;99.90;;;;;;5028156;28;19945;-70
2021/11/17 05:10:07;;;;;;;;;;;7.00;99.90;;;;;;5027614;28;19913;-69
2021/11/17 05:12:33;;;;;;;;;;;7.00;99.90;;;;;;5041055;28;19936;-69
2021/11/17 05:15:06;;;;;;;;;;;7.00;99.90;;;;;;5032114;28;19962;-68
2021/11/17 05:17:31;;;;;;;;;;;7.00;99.90;;;;;;5027008;28;19939;-70
2021/11/17 05:20:03;;;;;;;;;;;7.10;99.90;;;;;;5029847;28;19908;-69
2021/11/17 05:22:56;;;;;;;;;;;7.20;99.90;;;;;;5046313;28;19913;-69
2021/11/17 05:25:25;;;;;;;;;;;7.20;99.90;;;;;;5019386;28;19914;-72
2021/11/17 05:28:09;;;;;;;;;;;7.20;99.90;;;;;;5014681;28;19921;-68
2021/11/17 05:30:35;;;;;;;;;;;7.20;99.90;;;;;;5002971;28;19919;-70
2021/11/17 05:33:09;;;;;;;;;;;7.20;99.90;;;;;;5021357;28;19996;-70
2021/11/17 05:35:51;;;;;;;;;;;7.20;99.90;;;;;;5020150;28;19914;-70
2021/11/17 05:38:26;;;;;;;;;;;7.30;99.90;;;;;;5017692;28;19944;-69
2021/11/17 05:40:57;;;;;;;;;;;7.30;99.90;;;;;;5023404;28;19961;-69
2021/11/17 05:43:38;;;;;;;;;;;7.30;99.90;;;;;;5028034;28;19968;-70
2021/11/17 05:46:12;;;;;;;;;;;7.30;99.90;;;;;;5024225;28;19913;-67
2021/11/17 05:48:57;;;;;;;;;;;7.40;99.90;;;;;;5017603;28;19913;-72
2021/11/17 05:51:43;;;;;;;;;;;7.40;99.90;;;;;;5024321;28;19913;-68
2021/11/17 05:54:08;;;;;;;;;;;7.50;99.90;;;;;;5021254;28;19953;-70
2021/11/17 05:56:52;;;;;;;;;;;7.50;99.90;;;;;;5016669;28;19969;-70
2021/11/17 05:59:24;;;;;;;;;;;7.60;99.90;;;;;;5017100;28;19917;-70
2021/11/17 06:01:49;;;;;;;;;;;7.60;99.90;;;;;;5014599;28;19959;-73
2021/11/17 06:04:15;;;;;;;;;;;7.70;99.90;;;;;;5023029;28;19968;-71
2021/11/17 06:06:40;;;;;;;;;;;7.70;99.90;;;;;;5024450;28;19917;-69
2021/11/17 06:09:06;;;;;;;;;;;7.70;99.90;;;;;;5029120;28;19920;-68
2021/11/17 06:11:43;;;;;;;;;;;7.70;99.90;;;;;;5043412;28;19909;-72
2021/11/17 06:14:14;;;;;;;;;;;7.70;99.90;;;;;;5031310;28;19972;-70
2021/11/17 06:16:44;;;;;;;;;;;7.70;99.90;;;;;;5032647;28;19909;-70
2021/11/17 06:19:10;;;;;;;;;;;7.70;99.90;;;;;;5028899;28;19920;-72
2021/11/17 06:21:37;;;;;;;;;;;7.70;99.90;;;;;;5033283;28;20294;-70
2021/11/17 06:24:04;;;;;;;;;;;7.80;99.90;;;;;;5022369;28;19964;-71
2021/11/17 06:26:33;;;;;;;;;;;7.70;99.90;;;;;;5034130;28;19936;-69
2021/11/17 06:29:00;;;;;;;;;;;7.90;99.90;;;;;;5035264;28;19920;-70
2021/11/17 06:31:27;;;;;;;;;;;7.90;99.90;;;;;;5042776;28;19919;-70
2021/11/17 06:33:52;;;;;;;;;;;7.90;99.90;;;;;;5036687;28;20341;-72
2021/11/17 06:36:18;;;;;;;;;;;7.90;99.90;;;;;;5036947;28;19935;-71
2021/11/17 06:38:44;;;;;;;;;;;7.90;99.90;;;;;;5033771;28;19921;-69
2021/11/17 06:41:10;;;;;;;;;;;7.90;99.90;;;;;;5033093;28;19986;-69
2021/11/17 06:43:36;;;;;;;;;;;7.90;99.90;;;;;;5011664;28;19921;-69
2021/11/17 06:46:01;;;;;;;;;;;7.90;99.90;;;;;;5016947;28;20360;-69
2021/11/17 06:48:29;;;;;;;;;;;7.90;99.90;;;;;;5040511;28;20378;-69
2021/11/17 06:50:55;;;;;;;;;;;8.00;99.90;;;;;;5028926;28;19913;-69
2021/11/17 06:53:21;;;;;;;;;;;8.00;99.90;;;;;;5024062;28;19964;-68
2021/11/17 06:55:47;;;;;;;;;;;8.00;99.90;;;;;;5018671;28;19910;-70
2021/11/17 06:58:13;;;;;;;;;;;8.10;99.90;;;;;;5017559;28;19914;-69
2021/11/17 07:00:39;;;;;;;;;;;8.10;99.90;;;;;;5027117;28;20361;-69
2021/11/17 07:03:05;;;;;;;;;;;8.10;99.90;;;;;;5022731;28;19999;-69
2021/11/17 07:05:30;;;;;;;;;;;8.00;99.90;;;;;;5022041;28;20079;-69
2021/11/17 07:07:56;;;;;;;;;;;8.10;99.90;;;;;;5012333;28;19920;-69
2021/11/17 07:10:25;;;;;;;;;;;8.10;99.90;;;;;;5024212;28;20347;-67
2021/11/17 07:12:50;;;;;;;;;;;8.10;99.90;;;;;;5024390;28;20018;-70
2021/11/17 07:15:16;;;;;;;;;;;8.10;99.90;;;;;;5020613;28;19945;-69
2021/11/17 07:17:42;;;;;;;;;;;8.10;99.90;;;;;;5030232;28;19963;-69
2021/11/17 07:20:08;;;;;;;;;;;8.10;99.90;;;;;;5027796;28;20512;-71
2021/11/17 07:22:34;;;;;;;;;;;8.10;99.90;;;;;;5036389;28;19959;-69
2021/11/17 07:25:00;;;;;;;;;;;8.20;99.90;;;;;;5030679;28;19921;-69
2021/11/17 07:27:26;;;;;;;;;;;8.10;99.90;;;;;;5032646;28;19921;-73
2021/11/17 07:29:53;;;;;;;;;;;8.20;99.90;;;;;;5031826;28;19914;-71
2021/11/17 07:32:19;;;;;;;;;;;8.30;99.90;;;;;;5025963;28;19920;-72
2021/11/17 07:34:45;;;;;;;;;;;8.30;99.90;;;;;;5027113;28;19963;-72
2021/11/17 07:37:11;;;;;;;;;;;8.40;99.90;;;;;;5023490;28;19917;-69
2021/11/17 07:39:36;;;;;;;;;;;8.40;99.90;;;;;;5032078;28;19984;-69
2021/11/17 07:42:02;;;;;;;;;;;8.50;99.90;;;;;;5029358;28;20408;-69
2021/11/17 07:44:27;;;;;;;;;;;8.50;99.90;;;;;;5031781;28;19948;-72
2021/11/17 07:46:54;;;;;;;;;;;8.50;99.90;;;;;;5034238;28;19924;-69
2021/11/17 07:49:21;;;;;;;;;;;8.60;99.90;;;;;;5030466;28;19917;-70
2021/11/17 07:51:47;;;;;;;;;;;8.50;99.90;;;;;;5048544;28;20239;-68
2021/11/17 07:54:12;;;;;;;;;;;8.60;99.90;;;;;;5063966;28;19916;-70
2021/11/17 07:56:39;;;;;;;;;;;8.60;99.90;;;;;;5036953;28;19917;-70
2021/11/17 07:59:06;;;;;;;;;;;8.60;99.90;;;;;;5028654;28;19963;-71
2021/11/17 08:01:32;;;;;;;;;;;8.70;99.90;;;;;;5043422;28;20437;-71
2021/11/17 08:03:58;;;;;;;;;;;8.70;99.90;;;;;;5026906;28;19924;-69
2021/11/17 08:06:25;;;;;;;;;;;8.70;99.90;;;;;;5025859;28;19917;-69
2021/11/17 08:08:54;;;;;;;;;;;8.70;99.90;;;;;;5027242;28;19917;-68
2021/11/17 08:11:20;;;;;;;;;;;8.80;99.90;;;;;;5019557;28;19963;-69
2021/11/17 08:13:46;;;;;;;;;;;8.80;99.90;;;;;;5019606;28;19924;-70
2021/11/17 08:16:12;;;;;;;;;;;8.80;99.90;;;;;;5017735;28;19909;-69
2021/11/17 08:18:42;;;;;;;;;;;8.80;99.90;;;;;;5006633;28;19909;-70
2021/11/17 08:21:08;;;;;;;;;;;8.90;99.90;;;;;;5022893;28;19917;-70
2021/11/17 08:23:34;;;;;;;;;;;8.90;99.90;;;;;;5023596;28;19921;-73
2021/11/17 08:26:00;;;;;;;;;;;8.90;99.90;;;;;;5035447;28;20728;-70
2021/11/17 08:28:26;;;;;;;;;;;8.90;99.90;;;;;;5036548;28;19959;-68
2021/11/17 08:30:52;;;;;;;;;;;8.90;99.90;;;;;;5026902;28;20218;-69
2021/11/17 08:33:18;;;;;;;;;;;9.10;99.90;;;;;;5024389;28;20471;-72
2021/11/17 08:35:45;;;;;;;;;;;9.10;99.90;;;;;;5030921;28;19924;-69
2021/11/17 08:38:11;;;;;;;;;;;9.00;99.90;;;;;;5034604;28;19980;-70
2021/11/17 08:40:38;;;;;;;;;;;9.00;99.90;;;;;;5016380;28;19923;-69
2021/11/17 08:43:05;;;;;;;;;;;9.00;99.90;;;;;;5047451;28;19955;-68
2021/11/17 08:45:31;;;;;;;;;;;9.00;99.90;;;;;;5036563;28;20461;-69
2021/11/17 08:47:56;;;;;;;;;;;9.10;99.90;;;;;;5032157;28;19951;-68
2021/11/17 08:50:24;;;;;;;;;;;9.10;99.90;;;;;;5018027;28;19967;-69
2021/11/17 08:52:50;;;;;;;;;;;9.20;99.90;;;;;;5052784;28;19944;-68
2021/11/17 08:55:16;;;;;;;;;;;9.20;99.90;;;;;;5022848;28;19932;-69
2021/11/17 08:57:43;;;;;;;;;;;9.20;99.90;;;;;;5025375;28;19913;-69
2021/11/17 09:00:10;;;;;;;;;;;9.20;99.90;;;;;;5026440;28;20503;-69
2021/11/17 09:02:40;;;;;;;;;;;9.30;99.90;;;;;;5024719;28;20418;-70
2021/11/17 09:05:07;;;;;;;;;;;9.40;99.90;;;;;;5024405;28;20378;-69
2021/11/17 09:07:33;;;;;;;;;;;9.40;99.90;;;;;;5013664;28;19913;-68
2021/11/17 09:09:58;;;;;;;;;;;9.40;99.90;;;;;;5019293;28;19924;-69
2021/11/17 09:12:24;;;;;;;;;;;9.60;99.90;;;;;;5015060;28;19913;-69
2021/11/17 09:14:49;;;;;;;;;;;9.70;99.90;;;;;;5015251;28;19913;-72
2021/11/17 09:17:15;;;;;;;;;;;9.70;99.90;;;;;;5016836;28;20173;-70
2021/11/17 09:19:40;;;;;;;;;;;9.90;99.90;;;;;;5025468;28;19921;-69
2021/11/17 09:22:06;;;;;;;;;;;9.90;99.90;;;;;;5025981;28;20391;-71
2021/11/17 09:24:32;;;;;;;;;;;9.90;99.90;;;;;;5024178;28;19913;-70
2021/11/17 09:27:04;;;;;;;;;;;10.10;99.90;;;;;;5018351;28;20222;-71
2021/11/17 09:29:31;;;;;;;;;;;10.00;99.90;;;;;;5021710;28;20393;-69
2021/11/17 09:31:56;;;;;;;;;;;10.00;99.90;;;;;;5014616;28;19952;-71
2021/11/17 09:34:22;;;;;;;;;;;10.00;99.90;;;;;;5005483;28;19939;-68
2021/11/17 09:36:47;;;;;;;;;;;9.90;99.90;;;;;;5018465;28;20012;-69
2021/11/17 09:39:14;;;;;;;;;;;9.90;99.90;;;;;;5021359;28;19943;-69
2021/11/17 09:41:45;;;;;;;;;;;10.00;99.90;;;;;;5039361;28;19964;-72
2021/11/17 09:44:29;;;;;;;;;;;10.00;99.90;;;;;;5043999;28;19913;-67
2021/11/17 09:46:55;;;;;;;;;;;10.10;99.90;;;;;;5045317;28;19917;-69
2021/11/17 09:49:33;;;;;;;;;;;10.10;99.90;;;;;;5043244;28;19946;-71
2021/11/17 09:52:00;;;;;;;;;;;10.10;99.90;;;;;;5032129;28;19925;-73
2021/11/17 09:54:38;;;;;;;;;;;10.30;99.90;;;;;;5038041;28;20439;-72
2021/11/17 09:57:07;;;;;;;;;;;10.30;99.90;;;;;;5036238;28;19913;-69
2021/11/17 09:59:44;;;;;;;;;;;10.40;99.90;;;;;;5034116;28;19959;-69
2021/11/17 10:02:17;;;;;;;;;;;10.50;99.90;;;;;;5047766;28;19913;-68
2021/11/17 10:04:59;;;;;;;;;;;10.50;99.90;;;;;;5033237;28;19921;-70
2021/11/17 10:08:09;;;;;;;;;;;10.50;99.90;;;;;;5031172;28;19919;-69
2021/11/17 10:13:36;;;;;;;;;;;10.60;99.90;;;;;;5019991;28;19917;-69
2021/11/17 10:16:02;;;;;;;;;;;10.50;99.90;;;;;;5016224;28;20161;-69
2021/11/17 10:18:39;;;;;;;;;;;10.70;99.90;;;;;;5057204;28;19909;-67
2021/11/17 10:21:08;;;;;;;;;;;10.70;99.90;;;;;;5030407;28;19924;-69
2021/11/17 10:23:43;;;;;;;;;;;10.70;99.90;;;;;;5025926;28;19940;-69
2021/11/17 10:26:09;;;;;;;;;;;10.70;99.90;;;;;;5032461;28;19909;-66
2021/11/17 10:28:51;;;;;;;;;;;10.70;99.90;;;;;;5062685;28;20034;-69
2021/11/17 10:31:42;;;;;;;;;;;10.80;99.90;;;;;;5053976;28;19913;-74
2021/11/17 10:34:08;;;;;;;;;;;10.90;99.90;;;;;;5045485;28;19909;-73
2021/11/17 10:36:34;;;;;;;;;;;11.00;99.90;;;;;;5048097;28;20373;-70
2021/11/17 10:39:08;;;;;;;;;;;11.10;99.90;;;;;;5053678;28;19920;-69
2021/11/17 10:41:34;;;;;;;;;;;11.00;99.90;;;;;;5053551;28;19921;-70
2021/11/17 10:44:02;;;;;;;;;;;11.00;99.90;;;;;;5056173;28;19915;-70
2021/11/17 10:46:42;;;;;;;;;;;11.10;99.90;;;;;;5040921;28;19935;-71
2021/11/17 10:49:10;;;;;;;;;;;11.20;99.90;;;;;;5029324;28;19913;-71
2021/11/17 10:51:48;;;;;;;;;;;11.30;99.90;;;;;;5030954;28;19942;-69
2021/11/17 10:54:13;;;;;;;;;;;11.40;99.90;;;;;;5012857;28;19910;-70
2021/11/17 10:56:39;;;;;;;;;;;11.40;99.90;;;;;;5047166;28;19940;-71
2021/11/17 10:59:05;;;;;;;;;;;11.50;99.90;;;;;;5032717;28;19909;-71
2021/11/17 11:01:43;;;;;;;;;;;11.70;99.90;;;;;;5030710;28;19917;-68
2021/11/17 11:04:10;;;;;;;;;;;11.90;99.90;;;;;;5030598;28;20226;-70
2021/11/17 11:06:38;;;;;;;;;;;12.00;99.90;;;;;;5028638;28;19956;-70
2021/11/17 11:09:07;;;;;;;;;;;12.10;99.90;;;;;;5028652;28;20274;-69
2021/11/17 11:11:35;;;;;;;;;;;12.30;99.90;;;;;;5029209;28;20231;-68
2021/11/17 11:14:06;;;;;;;;;;;12.40;99.90;;;;;;5029011;28;19913;-69
2021/11/17 11:16:46;;;;;;;;;;;12.70;99.90;;;;;;5034034;28;19917;-74
2021/11/17 11:19:12;;;;;;;;;;;12.90;99.90;;;;;;5054483;28;19919;-71
2021/11/17 11:21:41;;;;;;;;;;;12.90;99.90;;;;;;5052551;28;20403;-70
2021/11/17 11:24:25;;;;;;;;;;;13.00;99.90;;;;;;5056566;28;19916;-72
2021/11/17 11:26:57;;;;;;;;;;;12.90;99.90;;;;;;5045864;28;19925;-73
2021/11/17 11:29:44;;;;;;;;;;;12.70;99.90;;;;;;5038165;28;19917;-69
2021/11/17 11:32:29;;;;;;;;;;;12.70;99.90;;;;;;5038590;28;20376;-72
2021/11/17 11:34:58;;;;;;;;;;;12.40;99.90;;;;;;5038168;28;20123;-69
2021/11/17 11:37:23;;;;;;;;;;;12.10;99.90;;;;;;5036265;28;19919;-69
2021/11/17 11:39:50;;;;;;;;;;;12.00;99.90;;;;;;5033106;28;20004;-69
2021/11/17 11:42:19;;;;;;;;;;;11.80;99.90;;;;;;5036137;28;19925;-70
2021/11/17 11:44:47;;;;;;;;;;;11.80;99.90;;;;;;5050163;28;19912;-71
2021/11/17 11:47:12;;;;;;;;;;;11.70;99.90;;;;;;5030713;28;20023;-71
2021/11/17 11:49:43;;;;;;;;;;;11.80;99.90;;;;;;5029466;28;19944;-71
2021/11/17 11:52:08;;;;;;;;;;;11.90;99.90;;;;;;5028388;28;19920;-71
2021/11/17 11:54:54;;;;;;;;;;;12.10;99.90;;;;;;5034600;28;19917;-70
2021/11/17 11:57:36;;;;;;;;;;;12.30;99.90;;;;;;5041028;28;19913;-69
2021/11/17 12:00:17;;;;;;;;;;;12.50;99.90;;;;;;5030906;28;20339;-70
2021/11/17 12:02:49;;;;;;;;;;;12.40;99.90;;;;;;5044871;28;20147;-70
2021/11/17 12:05:33;;;;;;;;;;;12.50;99.90;;;;;;5043303;28;19924;-69
2021/11/17 12:08:07;;;;;;;;;;;12.50;99.90;;;;;;5051011;28;20297;-71
2021/11/17 12:10:35;;;;;;;;;;;12.60;99.90;;;;;;5049599;28;19958;-71
2021/11/17 12:13:15;;;;;;;;;;;12.80;99.90;;;;;;5047076;28;19944;-71
2021/11/17 12:15:53;;;;;;;;;;;12.90;99.90;;;;;;5034081;28;19919;-70
2021/11/17 12:18:19;;;;;;;;;;;12.80;99.90;;;;;;5043429;28;19920;-70
2021/11/17 12:20:47;;;;;;;;;;;12.80;99.90;;;;;;5038240;28;19924;-68
2021/11/17 12:23:15;;;;;;;;;;;12.60;99.90;;;;;;5017939;28;19913;-70
2021/11/17 12:25:40;;;;;;;;;;;12.30;99.90;;;;;;5034870;28;20019;-70
2021/11/17 12:28:10;;;;;;;;;;;12.20;99.90;;;;;;5027229;28;19960;-70
2021/11/17 12:30:50;;;;;;;;;;;12.30;99.90;;;;;;5026661;28;19987;-72
2021/11/17 12:33:39;;;;;;;;;;;12.70;99.90;;;;;;5016757;28;19913;-70
2021/11/17 12:36:04;;;;;;;;;;;12.70;99.90;;;;;;5022182;28;20055;-71
2021/11/17 12:38:30;;;;;;;;;;;12.50;99.90;;;;;;5029290;28;19917;-70
2021/11/17 12:40:58;;;;;;;;;;;12.60;99.90;;;;;;5022582;28;20162;-71
2021/11/17 12:43:34;;;;;;;;;;;12.50;99.90;;;;;;5049688;28;19941;-71
2021/11/17 12:46:06;;;;;;;;;;;12.50;99.90;;;;;;5047170;28;19984;-70
2021/11/17 12:48:38;;;;;;;;;;;12.50;99.90;;;;;;5038818;28;19944;-71
2021/11/17 12:51:03;;;;;;;;;;;12.50;99.90;;;;;;5043946;28;19936;-71
2021/11/17 12:53:45;;;;;;;;;;;12.20;99.90;;;;;;5038338;28;19910;-68
2021/11/17 12:56:14;;;;;;;;;;;12.10;99.90;;;;;;5037442;28;19964;-68
2021/11/17 12:58:41;;;;;;;;;;;12.00;99.90;;;;;;5042516;28;20593;-68
2021/11/17 13:01:10;;;;;;;;;;;11.90;99.90;;;;;;5042962;28;20437;-70
2021/11/17 13:03:37;;;;;;;;;;;12.00;99.90;;;;;;5060394;28;19921;-69
2021/11/17 13:06:18;;;;;;;;;;;12.10;99.90;;;;;;5047472;28;19940;-70
2021/11/17 13:08:44;;;;;;;;;;;12.00;99.90;;;;;;5018127;28;19932;-71
2021/11/17 13:11:16;;;;;;;;;;;11.80;99.90;;;;;;5044479;28;20357;-71
2021/11/17 13:13:51;;;;;;;;;;;11.70;99.90;;;;;;5012776;28;19948;-70
2021/11/17 13:16:23;;;;;;;;;;;11.80;99.90;;;;;;5027564;28;19992;-68
2021/11/17 13:18:53;;;;;;;;;;;11.70;99.90;;;;;;5013823;28;20419;-69
2021/11/17 13:21:23;;;;;;;;;;;11.80;99.90;;;;;;5038336;28;20222;-69
2021/11/17 13:24:07;;;;;;;;;;;11.80;99.90;;;;;;5051744;28;19909;-68
2021/11/17 13:26:38;;;;;;;;;;;11.70;99.90;;;;;;5036913;28;19916;-69
2021/11/17 13:29:17;;;;;;;;;;;11.60;99.90;;;;;;5048847;28;19931;-70
2021/11/17 13:31:44;;;;;;;;;;;11.60;99.90;;;;;;5057181;28;19913;-70
2021/11/17 13:34:15;;;;;;;;;;;11.50;99.90;;;;;;5034860;28;19913;-71
2021/11/17 13:36:46;;;;;;;;;;;11.40;99.90;;;;;;5052014;28;20063;-73
2021/11/17 13:39:13;;;;;;;;;;;11.40;99.90;;;;;;5062821;28;19923;-69
2021/11/17 13:41:41;;;;;;;;;;;11.30;99.90;;;;;;5045788;28;19943;-71
2021/11/17 13:44:07;;;;;;;;;;;11.30;99.90;;;;;;5043372;28;19955;-69
2021/11/17 13:46:33;;;;;;;;;;;11.20;99.90;;;;;;5015351;28;19961;-70
2021/11/17 13:48:58;;;;;;;;;;;11.20;99.90;;;;;;5032301;28;19917;-71
2021/11/17 13:51:26;;;;;;;;;;;11.20;99.90;;;;;;5034342;28;19913;-69
2021/11/17 13:53:52;;;;;;;;;;;11.20;99.90;;;;;;5053587;28;19948;-72
2021/11/17 13:56:21;;;;;;;;;;;11.20;99.90;;;;;;5053846;28;19963;-69
2021/11/17 13:58:51;;;;;;;;;;;11.20;99.90;;;;;;5038781;28;19920;-73
2021/11/17 14:01:17;;;;;;;;;;;11.10;99.90;;;;;;5022838;28;20120;-69
2021/11/17 14:03:42;;;;;;;;;;;11.10;99.90;;;;;;5051430;28;19988;-73
2021/11/17 14:06:10;;;;;;;;;;;11.10;99.90;;;;;;5056898;28;19920;-69
2021/11/17 14:08:35;;;;;;;;;;;11.00;99.90;;;;;;5049125;28;20249;-69
2021/11/17 14:11:02;;;;;;;;;;;11.00;99.90;;;;;;5045170;28;19924;-68
2021/11/17 14:13:28;;;;;;;;;;;11.00;99.90;;;;;;5047851;28;19963;-68
2021/11/17 14:15:54;;;;;;;;;;;11.00;99.90;;;;;;5044219;28;20007;-70
2021/11/17 14:18:20;;;;;;;;;;;11.00;99.90;;;;;;5039919;28;19953;-70
2021/11/17 14:20:46;;;;;;;;;;;11.00;99.90;;;;;;5045849;28;20290;-71
2021/11/17 14:23:12;;;;;;;;;;;11.00;99.90;;;;;;5036864;28;19917;-71
2021/11/17 14:25:38;;;;;;;;;;;10.90;99.90;;;;;;5040128;28;19914;-72
2021/11/17 14:28:17;;;;;;;;;;;10.90;99.90;;;;;;5044126;28;19912;-69
2021/11/17 14:30:47;;;;;;;;;;;10.90;99.90;;;;;;5031599;28;19948;-69
2021/11/17 14:33:17;;;;;;;;;;;10.90;99.90;;;;;;5033155;28;19931;-69
2021/11/17 14:35:43;;;;;;;;;;;10.90;99.90;;;;;;5033894;28;19999;-69
2021/11/17 14:38:14;;;;;;;;;;;10.80;99.90;;;;;;5032324;28;19974;-69
2021/11/17 14:40:40;;;;;;;;;;;10.70;99.90;;;;;;5030904;28;20498;-69
2021/11/17 14:43:05;;;;;;;;;;;10.70;99.90;;;;;;5032729;28;19913;-69
2021/11/17 14:45:31;;;;;;;;;;;10.70;99.90;;;;;;5034984;28;19930;-69
2021/11/17 14:47:57;;;;;;;;;;;10.70;99.90;;;;;;5033219;28;19933;-70
2021/11/17 14:50:23;;;;;;;;;;;10.70;99.90;;;;;;5019270;28;19924;-71
2021/11/17 14:52:49;;;;;;;;;;;10.70;99.90;;;;;;5041200;28;19913;-69
2021/11/17 14:55:17;;;;;;;;;;;10.70;99.90;;;;;;5015461;28;19913;-70
2021/11/17 14:57:42;;;;;;;;;;;10.70;99.90;;;;;;5013089;28;19917;-69
2021/11/17 15:00:10;;;;;;;;;;;10.70;99.90;;;;;;5022442;28;20000;-72
2021/11/17 15:02:36;;;;;;;;;;;10.60;99.90;;;;;;5017606;28;19940;-72
2021/11/17 15:05:02;;;;;;;;;;;10.60;99.90;;;;;;5032351;28;19924;-71
2021/11/17 15:07:27;;;;;;;;;;;10.60;99.90;;;;;;5043786;28;19917;-70
2021/11/17 15:09:53;;;;;;;;;;;10.60;99.90;;;;;;5038111;28;19948;-72
2021/11/17 15:12:21;;;;;;;;;;;10.60;99.90;;;;;;5034398;28;19984;-69
2021/11/17 15:14:46;;;;;;;;;;;10.50;99.90;;;;;;5026580;28;19913;-67
2021/11/17 15:17:13;;;;;;;;;;;10.50;99.90;;;;;;5025345;28;20573;-71
2021/11/17 15:19:38;;;;;;;;;;;10.40;99.90;;;;;;5019909;28;19928;-72
2021/11/17 15:22:04;;;;;;;;;;;10.40;99.90;;;;;;5017215;28;19910;-70
2021/11/17 15:24:31;;;;;;;;;;;10.40;99.90;;;;;;5024692;28;20373;-71
2021/11/17 15:27:00;;;;;;;;;;;10.30;99.90;;;;;;5028077;28;20386;-69
2021/11/17 15:29:26;;;;;;;;;;;10.30;99.90;;;;;;5024989;28;19959;-71
2021/11/17 15:31:51;;;;;;;;;;;10.30;99.90;;;;;;5021998;28;19917;-70
2021/11/17 15:34:17;;;;;;;;;;;10.20;99.90;;;;;;5017022;28;19914;-72
2021/11/17 15:36:43;;;;;;;;;;;10.30;99.90;;;;;;5013418;28;20500;-71
2021/11/17 15:39:08;;;;;;;;;;;10.30;99.90;;;;;;5008049;28;22106;-72
2021/11/17 15:41:37;;;;;;;;;;;10.20;99.90;;;;;;5023995;28;19951;-72
2021/11/17 15:44:02;;;;;;;;;;;10.20;99.90;;;;;;5020480;28;19925;-70
2021/11/17 15:46:28;;;;;;;;;;;10.20;99.90;;;;;;5022395;28;20601;-70
2021/11/17 15:48:54;;;;;;;;;;;10.10;99.90;;;;;;4999578;28;19953;-70
2021/11/17 15:51:20;;;;;;;;;;;10.10;99.90;;;;;;5011557;28;19941;-71
2021/11/17 15:53:46;;;;;;;;;;;10.10;99.90;;;;;;5021916;28;19913;-71
2021/11/17 15:56:12;;;;;;;;;;;10.10;99.90;;;;;;5024612;28;20409;-70
2021/11/17 15:58:38;;;;;;;;;;;10.10;99.90;;;;;;5030783;28;19925;-69
2021/11/17 16:01:04;;;;;;;;;;;10.10;99.90;;;;;;5012337;28;19917;-70
2021/11/17 16:03:30;;;;;;;;;;;10.00;99.90;;;;;;5026065;28;20017;-71
2021/11/17 16:05:57;;;;;;;;;;;10.00;99.90;;;;;;5013732;28;20099;-70
2021/11/17 16:08:23;;;;;;;;;;;10.00;99.90;;;;;;5005692;28;19975;-70
2021/11/17 16:10:49;;;;;;;;;;;10.10;99.90;;;;;;5021013;28;20393;-70
2021/11/17 16:13:14;;;;;;;;;;;10.10;99.90;;;;;;5013669;28;19917;-72
2021/11/17 16:15:42;;;;;;;;;;;10.10;99.90;;;;;;5028240;28;19940;-72
2021/11/17 16:18:08;;;;;;;;;;;10.10;99.90;;;;;;5006515;28;19918;-71
2021/11/17 16:20:41;;;;;;;;;;;10.30;99.90;;;;;;5034685;28;20004;-71
2021/11/17 16:25:32;;;;;;;;;;;10.40;99.90;;;;;;5022355;28;20019;-70
2021/11/17 16:25:56;;;;;;;;;;;10.20;99.90;;;;;;5031770;28;19921;-73
2021/11/17 16:28:23;;;;;;;;;;;10.20;99.90;;;;;;5033919;28;20318;-69
2021/11/17 16:30:50;;;;;;;;;;;10.30;99.90;;;;;;5042585;28;19941;-73
2021/11/17 16:33:17;;;;;;;;;;;10.30;99.90;;;;;;5049360;28;19913;-73
2021/11/17 16:35:43;;;;;;;;;;;10.20;99.90;;;;;;5053260;28;20386;-73
2021/11/17 16:38:10;;;;;;;;;;;10.10;99.90;;;;;;5056624;28;19999;-74
2021/11/17 16:40:36;;;;;;;;;;;10.10;99.90;;;;;;5055553;28;20035;-71
2021/11/17 16:43:04;;;;;;;;;;;10.00;99.90;;;;;;5028331;28;20192;-71
2021/11/17 16:45:30;;;;;;;;;;;9.90;99.90;;;;;;5039598;28;20071;-70
2021/11/17 16:47:56;;;;;;;;;;;9.90;99.90;;;;;;5031752;28;19920;-72
2021/11/17 16:50:23;;;;;;;;;;;9.90;99.90;;;;;;5031907;28;19916;-70
2021/11/17 16:52:50;;;;;;;;;;;9.90;99.90;;;;;;5037623;28;19947;-70
2021/11/17 16:55:16;;;;;;;;;;;9.90;99.90;;;;;;5039691;28;19913;-71
2021/11/17 16:57:43;;;;;;;;;;;9.80;99.90;;;;;;5029735;28;19913;-70
2021/11/17 17:00:11;;;;;;;;;;;9.80;99.90;;;;;;5030501;28;19948;-70
2021/11/17 17:02:37;;;;;;;;;;;9.80;99.90;;;;;;5020388;28;20228;-72
2021/11/17 17:05:03;;;;;;;;;;;9.90;99.90;;;;;;5039658;28;19920;-72
2021/11/17 17:07:28;;;;;;;;;;;9.90;99.90;;;;;;5012983;28;19920;-71